This is the latest recevied weather packets stored in our database for station/object E27EKO-13. If no packets are shown the sender has not sent any weather packets the latest 10 day(s).
| Time | Temp. | Humidity | Pressure | Rain* | Wind** | Luminosity | Snow |
|---|---|---|---|---|---|---|---|
| 1777084859 | 36.67° C | 59% | 1011 hPa | - | - | 0 W/m² | - |
| 1777084537 | 37.22° C | 59% | 1011 hPa | - | - | 0 W/m² | - |
| 1777074530 | 32.78° C | 87% | 1009 hPa | - | - | 0 W/m² | - |
| 1777074208 | 31.67° C | 92% | 1009 hPa | - | - | 0 W/m² | - |
| 1777073979 | 31.11° C | 94% | 1009 hPa | - | - | 0 W/m² | - |
| 1777073657 | 30.56° C | 99% | 1009 hPa | - | - | 0 W/m² | - |
| 1777073479 | 30.56° C | 99% | 1009 hPa | - | - | 0 W/m² | - |
| 1777073157 | 30.56° C | 99% | 1009 hPa | - | - | 0 W/m² | - |
| 1777072835 | 30° C | 99% | 1009 hPa | - | - | 0 W/m² | - |
| 1777072513 | 30° C | 99% | 1009 hPa | - | - | 0 W/m² | - |
| 1777072191 | 30° C | 99% | 1009 hPa | - | - | 0 W/m² | - |
| 1777071869 | 30.56° C | 99% | 1009 hPa | - | - | 0 W/m² | - |
| 1777071547 | 30.56° C | 99% | 1009 hPa | - | - | 0 W/m² | - |
| 1777068301 | 30.56° C | 99% | 1008 hPa | - | - | 0 W/m² | - |
| 1777067979 | 30.56° C | 98% | 1008 hPa | - | - | 0 W/m² | - |
| 1777067657 | 31.11° C | 97% | 1008 hPa | - | - | 0 W/m² | - |
| 1777067334 | 30.56° C | 97% | 1008 hPa | - | - | 0 W/m² | - |
| 1777067012 | 31.11° C | 93% | 1008 hPa | - | - | 0 W/m² | - |
| 1777066690 | 31.67° C | 87% | 1008 hPa | - | - | 0 W/m² | - |
| 1777066368 | 31.67° C | 88% | 1008 hPa | - | - | 0 W/m² | - |
| 1777066046 | 31.67° C | 88% | 1007 hPa | - | - | 0 W/m² | - |
| 1777065724 | 31.67° C | 88% | 1007 hPa | - | - | 0 W/m² | - |
| 1777065402 | 31.67° C | 88% | 1007 hPa | - | - | 0 W/m² | - |
| 1777065080 | 31.67° C | 87% | 1007 hPa | - | - | 0 W/m² | - |
| 1777064758 | 31.67° C | 87% | 1007 hPa | - | - | 0 W/m² | - |
* Rain since midnight (hover to see other rain measurements)
** Current wind speed in m/s (hover to see current wind gust speed)